Timiskaming Regional Airport
CYXR : now visible

Airfield :











YOU CAN JOIN US ON...

 
LOGIN :

Register | Disclaimer

   EN    FR    IT 

 









Legend :    VFR   Marginal VFR   IFR   Intensive IFR   Very Intensive IFR
Visi :
Ceiling :
>= 8 km
>= 3000ft
5 to 8 km
1000 to 3000 ft
1500m to 5 km
500 to 1000 ft
800 to 1500m
200 to 500 ft
< 800m
< 200 ft
Symbols :   Thunderstorms  Fog  Heavy snow  Heavy precipitations  Wind > 20 kt






- Airport Elevation : 798 ft
- IATA code : YXR


CYXR - Timiskaming Regional

CURRENT METAR :
  • 291000Z AUTO 34005KT 9SM OVC011 M15/M17 A3022 RMK SLP259

EXPIRED METARs :
  • 290904Z AUTO 36008KT 9SM OVC013 M15/M17 A3021 RMK SLP253
  • 290821Z AUTO 35008KT 6SM -SN OVC013 M14/M16 A3020 RMK SLP251
  • 290800Z AUTO 35006KT 5SM -SN OVC013 M14/M16 A3021 RMK SLP253
  • 290756Z AUTO 36006KT 5SM -SN OVC013 M14/M16 A3021 RMK SLP253

Expired Forecast.



MET'MAP, your aeronautical weather chart ! - Copyright ORBIFLY December 2007 - Disclaimer

ORBIFLY MET'MAP TEAM :

Programming & Development : Alexandra Zaïnal
Concept & original design : Baudouin d'Aumeries
Assistance for programming : Marc-Olivier Méhu
Technical & hardware support : Manuel Goepfert

Contact : metmap@orbifly.com




SOURCES & CREDITS :

   NOAA       Earth
Advisory